RJFR/KKJ METAR and TAF weather

Enter ICAO airport designator
Station Type Date Time Source
RJFR METAR 2022/08/16 18:00 UTC NOAA

RJFR 161800Z 19009KT 9999 FEW015 SCT030 BKN045 28/25 Q1007


Station Type Date Time Source
RJFR Decoded METAR 2022/08/16 18:00 UTC NOAA

Kitakyushu Airport, Japan (RJFR) 33-50N 130-57E 6M
Aug 16, 2022 - 02:00 PM EDT / 2022.08.16 1800 UTC
Wind: from the S (190 degrees) at 10 MPH (9 KT):0
Visibility: greater than 7 mile(s):0
Sky conditions: mostly cloudy
Temperature: 82 F (28 C)
Dew Point: 77 F (25 C)
Relative Humidity: 83%
Pressure (altimeter): 29.74 in. Hg (1007 hPa)
ob: RJFR 161800Z 19009KT 9999 FEW015 SCT030 BKN045 28/25 Q1007
cycle: 18

Station Type Date Time Source
RJFR TAF 2022/08/16 18:00 UTC NOAA

TAF RJFR 161707Z 1618/1800 19012KT 8000 -SHRA FEW010 SCT015 BKN030
TEMPO 1618/1700 4000 -TSRA BR FEW010 SCT015 FEW025CB BKN030
TEMPO 1704/1709 21020G30KT
BECMG 1712/1715 32007KT
TEMPO 1712/1721 3000 TSRA BR FEW005 SCT010 BKN020 FEW025CB
TEMPO 1721/1800 4000 SHRA BR

Example: see airport list